Time;durP1;ratioP1;P1;durP2;ratioP2;P2;SDS_P1;SDS_P2;PMS_P1;PMS_P2;Temp;Humidity;BMP_temperature;BMP_pressure;BME280_temperature;BME280_humidity;BME280_pressure;Samples;Min_cycle;Max_cycle;Signal;HPM_P1;HPM_P2
2023/01/11 00:01:41;;;;;;;;;47.75;34.25;;;;;;;;5061530;28;51564;-59
2023/01/11 00:04:29;;;;;;;;;53.50;37.75;;;;;;;;5062655;27;51173;-58
2023/01/11 00:07:13;;;;;;;;;50.00;38.00;;;;;;;;5061536;28;51714;-60
2023/01/11 00:09:59;;;;;;;;;58.25;40.50;;;;;;;;5068312;27;51240;-60
2023/01/11 00:12:44;;;;;;;;;47.50;34.25;;;;;;;;5044334;28;51186;-59
2023/01/11 00:15:28;;;;;;;;;49.50;36.00;;;;;;;;5061440;28;51639;-57
2023/01/11 00:18:13;;;;;;;;;52.50;38.25;;;;;;;;5061179;28;51142;-58
2023/01/11 00:20:59;;;;;;;;;49.25;36.00;;;;;;;;5061164;28;51121;-59
2023/01/11 00:23:47;;;;;;;;;47.25;35.50;;;;;;;;5061472;28;51268;-58
2023/01/11 00:26:31;;;;;;;;;48.25;35.00;;;;;;;;5065082;27;51104;-58
2023/01/11 00:29:16;;;;;;;;;49.50;38.25;;;;;;;;5071454;27;51112;-58
2023/01/11 00:32:00;;;;;;;;;48.50;35.75;;;;;;;;5081164;27;51488;-60
2023/01/11 00:34:45;;;;;;;;;51.25;37.00;;;;;;;;5081144;27;51208;-59
2023/01/11 00:37:29;;;;;;;;;48.50;36.50;;;;;;;;5068611;27;51271;-60
2023/01/11 00:40:13;;;;;;;;;49.25;36.00;;;;;;;;5062681;28;51182;-58
2023/01/11 00:49:03;;;;;;;;;51.75;38.25;;;;;;;;5061068;28;50985;-59
2023/01/11 00:51:48;;;;;;;;;54.50;36.25;;;;;;;;5046296;28;51531;-58
2023/01/11 00:54:32;;;;;;;;;49.50;36.25;;;;;;;;5074133;27;51177;-59
2023/01/11 00:57:16;;;;;;;;;50.75;36.25;;;;;;;;5063139;28;51019;-58
2023/01/11 01:00:02;;;;;;;;;51.25;36.50;;;;;;;;5060199;28;51074;-57
2023/01/11 01:02:47;;;;;;;;;53.00;37.25;;;;;;;;5060643;28;51160;-58
2023/01/11 01:05:31;;;;;;;;;55.50;38.00;;;;;;;;5060023;28;51157;-61
2023/01/11 01:08:15;;;;;;;;;49.75;36.75;;;;;;;;5060304;28;51149;-59
2023/01/11 01:10:59;;;;;;;;;50.50;35.25;;;;;;;;5076775;27;51130;-57
2023/01/11 01:16:47;;;;;;;;;53.75;36.25;;;;;;;;5080232;27;51411;-58
2023/01/11 01:19:32;;;;;;;;;51.00;35.75;;;;;;;;5066146;27;51118;-59
2023/01/11 01:22:17;;;;;;;;;53.75;37.25;;;;;;;;5043704;28;51142;-59
2023/01/11 01:25:01;;;;;;;;;46.50;34.50;;;;;;;;5060733;28;51099;-57
2023/01/11 01:27:45;;;;;;;;;49.75;36.25;;;;;;;;5046506;28;51150;-59
2023/01/11 01:30:30;;;;;;;;;50.75;37.75;;;;;;;;5059361;27;51036;-60
2023/01/11 01:33:14;;;;;;;;;46.75;34.25;;;;;;;;5064758;27;51098;-59
2023/01/11 01:36:00;;;;;;;;;50.25;37.00;;;;;;;;5064823;27;51425;-59
2023/01/11 01:38:45;;;;;;;;;47.25;35.25;;;;;;;;5063038;28;51056;-60
2023/01/11 01:41:29;;;;;;;;;47.75;32.00;;;;;;;;5059514;28;51422;-60
2023/01/11 01:44:32;;;;;;;;;51.50;36.75;;;;;;;;5059265;28;51104;-59
2023/01/11 01:47:17;;;;;;;;;53.00;38.25;;;;;;;;5061183;27;51164;-59
2023/01/11 01:50:05;;;;;;;;;53.50;41.25;;;;;;;;5059629;28;51185;-58
2023/01/11 01:52:51;;;;;;;;;56.50;41.00;;;;;;;;5059676;28;51037;-58
2023/01/11 01:55:38;;;;;;;;;53.00;37.50;;;;;;;;5059285;28;51110;-58
2023/01/11 01:58:26;;;;;;;;;63.25;43.75;;;;;;;;5062475;28;51613;-59
2023/01/11 02:04:21;;;;;;;;;61.00;44.25;;;;;;;;5059812;28;51099;-58
2023/01/11 02:07:09;;;;;;;;;61.50;45.00;;;;;;;;5061264;27;52008;-57
2023/01/11 02:10:08;;;;;;;;;58.75;44.25;;;;;;;;5059280;28;51264;-59
2023/01/11 02:12:58;;;;;;;;;57.50;42.75;;;;;;;;5059294;28;51292;-60
2023/01/11 02:15:42;;;;;;;;;63.00;46.75;;;;;;;;5059159;28;51059;-58
2023/01/11 02:18:27;;;;;;;;;61.75;45.25;;;;;;;;5062842;28;51191;-59
2023/01/11 02:21:21;;;;;;;;;63.50;47.50;;;;;;;;5060376;28;51031;-59
2023/01/11 02:24:05;;;;;;;;;63.50;47.75;;;;;;;;5060428;28;51618;-58
2023/01/11 02:27:08;;;;;;;;;57.00;43.50;;;;;;;;5052739;28;51202;-58
2023/01/11 02:30:12;;;;;;;;;62.50;47.25;;;;;;;;5059371;28;51123;-57
2023/01/11 02:33:17;;;;;;;;;69.50;46.00;;;;;;;;5060209;28;51358;-57
2023/01/11 02:36:14;;;;;;;;;65.25;46.50;;;;;;;;5059247;28;51153;-58
2023/01/11 02:39:14;;;;;;;;;59.25;45.25;;;;;;;;5059023;28;51084;-57
2023/01/11 02:45:26;;;;;;;;;66.00;48.25;;;;;;;;5064761;28;51082;-57
2023/01/11 02:48:26;;;;;;;;;63.00;47.75;;;;;;;;5098935;27;51030;-59
2023/01/11 02:51:13;;;;;;;;;65.75;50.00;;;;;;;;5079222;28;51659;-58
2023/01/11 02:54:02;;;;;;;;;60.50;46.75;;;;;;;;5058905;28;51139;-58
2023/01/11 02:56:49;;;;;;;;;67.25;48.50;;;;;;;;5069656;27;51075;-58
2023/01/11 02:59:34;;;;;;;;;64.25;47.00;;;;;;;;5062536;28;51398;-56
2023/01/11 03:02:18;;;;;;;;;62.75;46.75;;;;;;;;5065086;27;51081;-58
2023/01/11 03:05:09;;;;;;;;;62.75;47.50;;;;;;;;5062751;28;51115;-57
2023/01/11 03:08:01;;;;;;;;;59.00;45.50;;;;;;;;5062259;28;51101;-58
2023/01/11 03:10:54;;;;;;;;;63.25;47.75;;;;;;;;5064209;27;51150;-56
2023/01/11 03:13:54;;;;;;;;;61.75;47.25;;;;;;;;5065572;27;51166;-59
2023/01/11 03:16:39;;;;;;;;;62.50;47.75;;;;;;;;5043338;28;51629;-58
2023/01/11 03:19:33;;;;;;;;;61.75;46.50;;;;;;;;5062245;28;51020;-56
2023/01/11 03:22:44;;;;;;;;;62.00;45.00;;;;;;;;5075957;27;51148;-59
2023/01/11 03:25:34;;;;;;;;;59.50;45.75;;;;;;;;5059091;28;51379;-56
2023/01/11 03:28:18;;;;;;;;;60.50;46.50;;;;;;;;5062313;28;51103;-58
2023/01/11 03:31:10;;;;;;;;;60.00;44.00;;;;;;;;5063984;27;51188;-58
2023/01/11 03:34:03;;;;;;;;;56.00;43.25;;;;;;;;5062186;28;51171;-58
2023/01/11 03:36:57;;;;;;;;;51.75;42.25;;;;;;;;5061665;28;51169;-58
2023/01/11 03:39:44;;;;;;;;;51.25;41.50;;;;;;;;5061916;28;51061;-57
2023/01/11 03:42:29;;;;;;;;;59.25;42.25;;;;;;;;5064144;28;51576;-58
2023/01/11 03:45:14;;;;;;;;;60.25;45.25;;;;;;;;5054674;27;51237;-56
2023/01/11 03:48:00;;;;;;;;;59.25;45.00;;;;;;;;5062315;28;51075;-59
2023/01/11 03:50:47;;;;;;;;;61.25;45.25;;;;;;;;5062888;27;51149;-59
2023/01/11 03:53:33;;;;;;;;;59.00;43.25;;;;;;;;5061887;28;51040;-57
2023/01/11 03:56:20;;;;;;;;;58.75;44.00;;;;;;;;5061946;28;51024;-58
2023/01/11 03:59:04;;;;;;;;;60.50;46.25;;;;;;;;5061573;28;51071;-54
2023/01/11 04:01:48;;;;;;;;;63.75;47.75;;;;;;;;5065950;27;51268;-57
2023/01/11 04:04:33;;;;;;;;;65.25;46.25;;;;;;;;5066909;27;51363;-59
2023/01/11 04:07:17;;;;;;;;;60.50;45.50;;;;;;;;5061127;28;51902;-55
2023/01/11 04:10:02;;;;;;;;;62.75;46.25;;;;;;;;5061400;28;51125;-57
2023/01/11 04:12:47;;;;;;;;;65.00;46.25;;;;;;;;5064468;27;51078;-58
2023/01/11 04:15:33;;;;;;;;;60.00;45.50;;;;;;;;5061128;28;51134;-58
2023/01/11 04:18:17;;;;;;;;;61.50;47.00;;;;;;;;5061329;28;51358;-58
2023/01/11 04:21:02;;;;;;;;;59.50;44.75;;;;;;;;5062264;27;51023;-57
2023/01/11 04:36:33;;;;;;;;;60.00;47.75;;;;;;;;4358852;32;51183;-57
2023/01/11 04:39:17;;;;;;;;;54.75;41.75;;;;;;;;5097634;27;51088;-56
2023/01/11 04:42:20;;;;;;;;;59.25;46.00;;;;;;;;5096724;27;51328;-57
2023/01/11 04:45:05;;;;;;;;;60.50;45.50;;;;;;;;5097180;27;51029;-57
2023/01/11 04:47:56;;;;;;;;;65.25;48.25;;;;;;;;5091713;27;51594;-57
2023/01/11 04:50:40;;;;;;;;;61.25;46.50;;;;;;;;5096626;27;51451;-56
2023/01/11 04:53:25;;;;;;;;;65.00;48.25;;;;;;;;5096927;27;51103;-57
2023/01/11 04:56:10;;;;;;;;;62.00;46.75;;;;;;;;5096928;27;51462;-57
2023/01/11 04:58:55;;;;;;;;;57.50;47.50;;;;;;;;5097239;27;51646;-57
2023/01/11 05:01:39;;;;;;;;;60.25;47.00;;;;;;;;5095439;27;51085;-57
2023/01/11 05:04:24;;;;;;;;;61.25;47.00;;;;;;;;5094951;27;51009;-57
2023/01/11 05:07:09;;;;;;;;;68.25;50.25;;;;;;;;5096712;27;51017;-57
2023/01/11 05:09:52;;;;;;;;;63.25;47.75;;;;;;;;5090617;27;51227;-57
2023/01/11 05:12:37;;;;;;;;;66.50;49.50;;;;;;;;5096524;27;51631;-57
2023/01/11 05:15:21;;;;;;;;;64.75;50.75;;;;;;;;5096188;27;51196;-56
2023/01/11 05:18:06;;;;;;;;;65.75;50.00;;;;;;;;5092199;27;51116;-56
2023/01/11 05:20:50;;;;;;;;;67.75;50.75;;;;;;;;5096294;27;51488;-56
2023/01/11 05:23:35;;;;;;;;;66.00;49.25;;;;;;;;5096357;27;51553;-57
2023/01/11 05:26:25;;;;;;;;;62.50;46.50;;;;;;;;5095543;27;51231;-57
2023/01/11 05:29:11;;;;;;;;;64.50;48.50;;;;;;;;5096781;27;51139;-57
2023/01/11 05:31:55;;;;;;;;;72.00;52.00;;;;;;;;5096329;27;51527;-57
2023/01/11 05:34:40;;;;;;;;;65.50;50.00;;;;;;;;5095779;27;51156;-58
2023/01/11 05:37:24;;;;;;;;;67.00;48.75;;;;;;;;5079856;27;51631;-57
2023/01/11 05:40:09;;;;;;;;;71.25;52.00;;;;;;;;5077164;27;51116;-57
2023/01/11 05:42:53;;;;;;;;;69.50;53.00;;;;;;;;5082583;27;51148;-57
2023/01/11 05:45:37;;;;;;;;;58.00;44.25;;;;;;;;5081701;27;51496;-57
2023/01/11 05:48:22;;;;;;;;;67.50;50.75;;;;;;;;5082191;27;51765;-57
2023/01/11 05:51:07;;;;;;;;;65.25;50.00;;;;;;;;5076337;27;51103;-57
2023/01/11 05:53:52;;;;;;;;;72.75;53.50;;;;;;;;5081354;27;50994;-57
2023/01/11 05:56:36;;;;;;;;;73.00;57.50;;;;;;;;5081560;27;51473;-57
2023/01/11 05:59:20;;;;;;;;;72.75;54.00;;;;;;;;5082341;27;51085;-57
2023/01/11 06:02:05;;;;;;;;;65.75;51.00;;;;;;;;5075784;27;51658;-57
2023/01/11 06:04:49;;;;;;;;;71.25;55.50;;;;;;;;5081726;27;51039;-57
2023/01/11 06:07:34;;;;;;;;;68.00;51.50;;;;;;;;5079492;27;51257;-57
2023/01/11 06:10:18;;;;;;;;;79.00;56.50;;;;;;;;5076874;27;51564;-57
2023/01/11 06:16:08;;;;;;;;;73.25;63.00;;;;;;;;5081301;27;51183;-57
2023/01/11 06:18:53;;;;;;;;;75.00;58.00;;;;;;;;5081865;27;51087;-57
2023/01/11 06:21:37;;;;;;;;;76.75;61.25;;;;;;;;5081837;27;51100;-56
2023/01/11 06:24:22;;;;;;;;;76.00;61.00;;;;;;;;5076815;27;51164;-57
2023/01/11 06:27:06;;;;;;;;;68.50;56.25;;;;;;;;5081117;27;51695;-56
2023/01/11 06:29:50;;;;;;;;;84.00;68.00;;;;;;;;5081241;27;51075;-57
2023/01/11 06:32:35;;;;;;;;;75.75;61.50;;;;;;;;5081785;27;50970;-57
2023/01/11 06:35:21;;;;;;;;;73.00;58.00;;;;;;;;5077119;27;51541;-56
2023/01/11 06:38:07;;;;;;;;;82.50;65.25;;;;;;;;5081380;27;51774;-58
2023/01/11 06:40:56;;;;;;;;;76.75;57.75;;;;;;;;5080130;27;51164;-58
2023/01/11 06:43:40;;;;;;;;;74.75;58.50;;;;;;;;5081563;27;51103;-58
2023/01/11 06:46:25;;;;;;;;;73.00;58.00;;;;;;;;5075351;27;51025;-58
2023/01/11 06:49:10;;;;;;;;;69.25;52.25;;;;;;;;5078918;27;51166;-59
2023/01/11 06:51:54;;;;;;;;;76.25;59.25;;;;;;;;5081141;27;51699;-58
2023/01/11 06:54:38;;;;;;;;;78.00;57.25;;;;;;;;5081115;27;51226;-58
2023/01/11 06:57:23;;;;;;;;;74.50;60.75;;;;;;;;5079341;27;51248;-58
2023/01/11 07:00:08;;;;;;;;;71.00;54.25;;;;;;;;5080052;27;51143;-58
2023/01/11 07:02:52;;;;;;;;;75.00;56.75;;;;;;;;5080815;27;51643;-58
2023/01/11 07:05:36;;;;;;;;;78.00;60.00;;;;;;;;5076061;27;51155;-59
2023/01/11 07:08:20;;;;;;;;;72.00;54.00;;;;;;;;5081219;27;50966;-55
2023/01/11 07:11:05;;;;;;;;;79.25;59.75;;;;;;;;5080148;27;51488;-55
2023/01/11 07:13:49;;;;;;;;;77.75;63.25;;;;;;;;5079481;27;51055;-56
2023/01/11 07:16:34;;;;;;;;;67.50;51.75;;;;;;;;5080674;27;51122;-56
2023/01/11 07:19:18;;;;;;;;;68.25;48.75;;;;;;;;5079486;27;51080;-56
2023/01/11 07:22:03;;;;;;;;;72.50;52.75;;;;;;;;5080857;27;51052;-55
2023/01/11 07:24:47;;;;;;;;;72.50;53.00;;;;;;;;5080318;27;51442;-55
2023/01/11 07:27:31;;;;;;;;;75.00;59.00;;;;;;;;5080363;27;51125;-58
2023/01/11 07:30:16;;;;;;;;;77.00;61.50;;;;;;;;5079547;27;51215;-58
2023/01/11 07:33:00;;;;;;;;;64.00;45.75;;;;;;;;5080596;27;51167;-58
2023/01/11 07:35:49;;;;;;;;;73.25;54.25;;;;;;;;5047302;28;51202;-58
2023/01/11 07:38:33;;;;;;;;;71.25;52.25;;;;;;;;5047386;28;51230;-59
2023/01/11 07:44:20;;;;;;;;;69.50;52.75;;;;;;;;5042230;28;51184;-58
2023/01/11 07:47:04;;;;;;;;;66.25;50.25;;;;;;;;5047589;28;51294;-55
2023/01/11 07:49:48;;;;;;;;;71.25;51.00;;;;;;;;5045252;28;51493;-58
2023/01/11 07:52:32;;;;;;;;;70.75;51.25;;;;;;;;5044551;28;51149;-58
2023/01/11 07:55:17;;;;;;;;;67.50;51.50;;;;;;;;5041091;28;51076;-58
2023/01/11 07:58:02;;;;;;;;;65.50;48.50;;;;;;;;5039195;28;51260;-59
2023/01/11 08:00:46;;;;;;;;;66.25;50.75;;;;;;;;5030114;28;51417;-58
2023/01/11 08:03:31;;;;;;;;;67.75;51.50;;;;;;;;5045854;28;51118;-58
2023/01/11 08:06:15;;;;;;;;;66.25;48.75;;;;;;;;5046595;28;51627;-58
2023/01/11 08:08:59;;;;;;;;;68.25;48.75;;;;;;;;5042670;28;51145;-58
2023/01/11 08:14:57;;;;;;;;;66.25;46.25;;;;;;;;5078363;27;51030;-56
2023/01/11 08:17:41;;;;;;;;;62.50;46.75;;;;;;;;5078541;27;51037;-57
2023/01/11 08:20:28;;;;;;;;;67.25;50.75;;;;;;;;5077947;27;51094;-57
2023/01/11 08:23:12;;;;;;;;;65.50;48.25;;;;;;;;5080018;28;51004;-57
2023/01/11 08:25:56;;;;;;;;;61.75;46.50;;;;;;;;5073270;28;51564;-56
2023/01/11 08:28:42;;;;;;;;;57.25;45.00;;;;;;;;5079233;28;51040;-57
2023/01/11 08:31:26;;;;;;;;;61.00;46.25;;;;;;;;5078400;28;51618;-57
2023/01/11 08:34:11;;;;;;;;;75.25;57.50;;;;;;;;5074593;28;51139;-56
2023/01/11 08:36:56;;;;;;;;;55.75;45.25;;;;;;;;5079336;28;51202;-56
2023/01/11 08:39:40;;;;;;;;;64.25;48.00;;;;;;;;5079127;28;51547;-56
2023/01/11 08:42:25;;;;;;;;;56.75;44.50;;;;;;;;5078523;28;51128;-56
2023/01/11 08:45:10;;;;;;;;;63.00;47.25;;;;;;;;5079325;28;51179;-57
2023/01/11 08:47:54;;;;;;;;;59.50;45.25;;;;;;;;5078245;28;51179;-56
2023/01/11 08:50:38;;;;;;;;;57.50;43.75;;;;;;;;5078989;28;51460;-57
2023/01/11 08:53:23;;;;;;;;;62.25;43.50;;;;;;;;5078300;28;51024;-56
2023/01/11 08:56:07;;;;;;;;;58.00;43.75;;;;;;;;5079400;28;51577;-56
2023/01/11 08:58:52;;;;;;;;;58.25;42.75;;;;;;;;5079197;28;51512;-57
2023/01/11 09:01:36;;;;;;;;;54.50;41.75;;;;;;;;5079274;28;51069;-57
2023/01/11 09:04:21;;;;;;;;;55.00;41.50;;;;;;;;5072337;28;51057;-57
2023/01/11 09:07:05;;;;;;;;;59.50;43.25;;;;;;;;5078758;28;52407;-56
2023/01/11 09:09:50;;;;;;;;;59.50;43.75;;;;;;;;5077192;28;51139;-57
2023/01/11 09:12:35;;;;;;;;;56.50;43.25;;;;;;;;5080368;27;51084;-57
2023/01/11 09:15:20;;;;;;;;;58.75;43.75;;;;;;;;5081652;27;51584;-57
2023/01/11 09:18:04;;;;;;;;;52.25;40.25;;;;;;;;5082710;27;51093;-57
2023/01/11 09:20:50;;;;;;;;;60.50;41.50;;;;;;;;5079267;27;51033;-57
2023/01/11 09:23:48;;;;;;;;;56.50;41.50;;;;;;;;5019741;28;51107;-56
2023/01/11 09:26:34;;;;;;;;;60.00;44.00;;;;;;;;5019777;28;51116;-57
2023/01/11 09:29:19;;;;;;;;;55.00;42.25;;;;;;;;5019031;28;51233;-57
2023/01/11 09:32:03;;;;;;;;;56.00;41.75;;;;;;;;5018308;28;51720;-57
2023/01/11 13:32:07;;;;;;;;;47.00;35.00;;;;;;;;4296312;32;51089;-55
2023/01/11 13:35:06;;;;;;;;;56.00;38.75;;;;;;;;5055748;28;51114;-54
2023/01/11 13:37:54;;;;;;;;;47.50;29.75;;;;;;;;5056551;28;51446;-51
2023/01/11 13:40:42;;;;;;;;;47.25;36.25;;;;;;;;5056594;28;51200;-54
2023/01/11 13:43:35;;;;;;;;;48.00;37.75;;;;;;;;5056803;28;51179;-51
2023/01/11 13:46:38;;;;;;;;;53.25;39.25;;;;;;;;5063700;28;51106;-47
2023/01/11 13:49:45;;;;;;;;;49.25;36.50;;;;;;;;5071458;27;51138;-53
2023/01/11 13:52:33;;;;;;;;;48.00;33.75;;;;;;;;5060198;28;51369;-54
2023/01/11 13:55:28;;;;;;;;;48.75;37.50;;;;;;;;5059573;28;51490;-54
2023/01/11 13:58:24;;;;;;;;;52.25;38.75;;;;;;;;5056162;28;51038;-55
2023/01/11 14:01:17;;;;;;;;;48.50;36.25;;;;;;;;5056453;28;51566;-54
2023/01/11 14:04:14;;;;;;;;;51.75;39.50;;;;;;;;5055528;28;51195;-50
2023/01/11 14:07:17;;;;;;;;;49.75;36.50;;;;;;;;5054799;28;51198;-52
2023/01/11 14:10:08;;;;;;;;;48.50;35.50;;;;;;;;5054753;28;51638;-52
2023/01/11 14:13:06;;;;;;;;;53.25;39.00;;;;;;;;5054890;28;51120;-52
2023/01/11 14:16:06;;;;;;;;;50.50;38.25;;;;;;;;5056265;28;51154;-51
2023/01/11 14:19:04;;;;;;;;;47.50;36.50;;;;;;;;5054174;28;51456;-52
2023/01/11 14:21:54;;;;;;;;;50.75;39.00;;;;;;;;5055741;28;51081;-54
2023/01/11 14:24:44;;;;;;;;;50.00;32.25;;;;;;;;5055762;28;51062;-53
2023/01/11 14:27:56;;;;;;;;;50.25;37.75;;;;;;;;5057349;28;51148;-55
2023/01/11 14:31:06;;;;;;;;;51.75;40.25;;;;;;;;5058801;28;51174;-54
2023/01/11 14:34:07;;;;;;;;;49.75;34.25;;;;;;;;5039469;28;51117;-54
2023/01/11 14:37:01;;;;;;;;;52.50;38.50;;;;;;;;5042280;28;51233;-53
2023/01/11 14:40:03;;;;;;;;;50.50;37.00;;;;;;;;5043698;28;51347;-55
2023/01/11 14:43:06;;;;;;;;;40.00;31.00;;;;;;;;5041464;28;51127;-53
2023/01/11 14:46:18;;;;;;;;;52.00;38.00;;;;;;;;5043968;28;51536;-55
2023/01/11 14:49:28;;;;;;;;;48.75;37.50;;;;;;;;5044038;28;51728;-54
2023/01/11 14:52:16;;;;;;;;;49.75;36.50;;;;;;;;5031107;28;51041;-56
2023/01/11 14:55:03;;;;;;;;;48.00;36.00;;;;;;;;5042858;28;51089;-51
2023/01/11 14:57:56;;;;;;;;;47.75;34.50;;;;;;;;5041430;28;51185;-53
2023/01/11 15:01:00;;;;;;;;;51.75;37.25;;;;;;;;5054542;28;51181;-54
2023/01/11 15:03:47;;;;;;;;;48.25;35.00;;;;;;;;5044933;28;51680;-56
2023/01/11 15:06:48;;;;;;;;;50.25;36.00;;;;;;;;5044702;28;51084;-50
2023/01/11 15:09:42;;;;;;;;;48.25;35.00;;;;;;;;5041914;28;51233;-50
2023/01/11 15:12:37;;;;;;;;;51.75;39.25;;;;;;;;5055751;27;51119;-55
2023/01/11 15:18:16;;;;;;;;;51.75;38.25;;;;;;;;5040475;28;51154;-53
2023/01/11 15:18:28;;;;;;;;;46.75;36.00;;;;;;;;5041460;28;51084;-49
2023/01/11 15:21:17;;;;;;;;;42.75;33.50;;;;;;;;5040827;28;50985;-55
2023/01/11 15:24:01;;;;;;;;;49.00;38.50;;;;;;;;5043520;28;51458;-54
2023/01/11 15:26:47;;;;;;;;;52.25;38.00;;;;;;;;5042111;28;51142;-53
2023/01/11 15:29:39;;;;;;;;;47.50;36.25;;;;;;;;5037758;28;51606;-53
2023/01/11 15:32:28;;;;;;;;;42.00;33.25;;;;;;;;5039899;28;51098;-51
2023/01/11 15:35:29;;;;;;;;;46.50;36.50;;;;;;;;5039761;28;51195;-54
2023/01/11 15:38:20;;;;;;;;;52.50;39.00;;;;;;;;5039704;28;51564;-50
2023/01/11 15:44:46;;;;;;;;;50.75;37.00;;;;;;;;5039214;28;51262;-57
2023/01/11 15:47:47;;;;;;;;;42.50;33.75;;;;;;;;5022616;28;51336;-57
2023/01/11 15:50:50;;;;;;;;;51.50;38.25;;;;;;;;5034606;28;51202;-51
2023/01/11 15:53:46;;;;;;;;;46.75;36.50;;;;;;;;5038578;28;51124;-54
2023/01/11 15:56:49;;;;;;;;;44.50;35.50;;;;;;;;5043973;28;51175;-51
2023/01/11 15:59:57;;;;;;;;;49.25;36.75;;;;;;;;5041139;28;51134;-56
2023/01/11 16:03:01;;;;;;;;;54.50;37.25;;;;;;;;5026894;28;51255;-54
2023/01/11 16:06:04;;;;;;;;;44.00;29.75;;;;;;;;5029400;28;51178;-52
2023/01/11 16:09:12;;;;;;;;;48.50;36.75;;;;;;;;5033970;28;51078;-52
2023/01/11 16:12:00;;;;;;;;;50.00;38.25;;;;;;;;5025476;28;51038;-55
2023/01/11 16:15:04;;;;;;;;;50.50;38.75;;;;;;;;5039520;28;51026;-56
2023/01/11 16:17:48;;;;;;;;;47.25;38.00;;;;;;;;5043428;28;51231;-54
2023/01/11 16:20:33;;;;;;;;;54.75;38.25;;;;;;;;5044140;28;51130;-53
2023/01/11 16:23:19;;;;;;;;;48.25;36.75;;;;;;;;5039760;28;51546;-50
2023/01/11 16:26:05;;;;;;;;;53.50;38.00;;;;;;;;5041711;28;51207;-55
2023/01/11 16:28:51;;;;;;;;;52.50;38.25;;;;;;;;5042020;28;51062;-51
2023/01/11 16:31:54;;;;;;;;;51.00;38.25;;;;;;;;5037737;28;51155;-50
2023/01/11 16:34:40;;;;;;;;;56.25;39.50;;;;;;;;5038741;28;51522;-53
2023/01/11 16:37:30;;;;;;;;;49.00;36.00;;;;;;;;5038576;28;51069;-54
2023/01/11 16:40:15;;;;;;;;;49.25;37.50;;;;;;;;5035322;28;51069;-53
2023/01/11 16:43:18;;;;;;;;;49.75;33.00;;;;;;;;5037699;28;51106;-49
2023/01/11 16:46:02;;;;;;;;;46.00;35.50;;;;;;;;5038197;28;51123;-49
2023/01/11 16:48:46;;;;;;;;;52.75;40.25;;;;;;;;5038375;28;51655;-50
2023/01/11 16:51:31;;;;;;;;;52.75;39.50;;;;;;;;5039140;28;51092;-53
2023/01/11 16:54:19;;;;;;;;;51.50;39.75;;;;;;;;5037592;28;51142;-52
2023/01/11 16:57:03;;;;;;;;;51.75;37.50;;;;;;;;5038519;28;51089;-55
2023/01/11 16:59:59;;;;;;;;;55.25;39.25;;;;;;;;5042650;28;51200;-52
2023/01/11 17:02:47;;;;;;;;;46.75;33.25;;;;;;;;5040861;28;51101;-53
2023/01/11 17:05:31;;;;;;;;;52.25;38.25;;;;;;;;5039067;28;51075;-47
2023/01/11 17:08:26;;;;;;;;;48.00;38.25;;;;;;;;5052368;28;51416;-52
2023/01/11 17:11:20;;;;;;;;;54.25;37.25;;;;;;;;5036583;28;51478;-53
2023/01/11 17:14:23;;;;;;;;;48.00;35.50;;;;;;;;5038943;28;51023;-52
2023/01/11 17:17:09;;;;;;;;;56.50;39.25;;;;;;;;5038457;28;51096;-53
2023/01/11 17:19:55;;;;;;;;;52.00;39.25;;;;;;;;5042490;28;52352;-55
2023/01/11 17:22:43;;;;;;;;;52.00;38.25;;;;;;;;5044853;28;51148;-51
2023/01/11 17:25:28;;;;;;;;;50.75;38.75;;;;;;;;5028725;28;51582;-48
2023/01/11 17:28:17;;;;;;;;;45.50;33.75;;;;;;;;5036466;28;51130;-53
2023/01/11 17:31:02;;;;;;;;;51.50;37.00;;;;;;;;5037171;28;51192;-51
2023/01/11 17:33:47;;;;;;;;;47.50;36.50;;;;;;;;5036295;28;51108;-53
2023/01/11 17:36:32;;;;;;;;;48.75;35.75;;;;;;;;5036895;28;51264;-53
2023/01/11 17:45:22;;;;;;;;;56.50;42.00;;;;;;;;5037463;28;51109;-54
2023/01/11 17:48:14;;;;;;;;;43.50;31.75;;;;;;;;5037794;28;51408;-53
2023/01/11 17:51:00;;;;;;;;;51.00;38.00;;;;;;;;5038240;28;51557;-52
2023/01/11 17:53:48;;;;;;;;;48.25;36.75;;;;;;;;5038702;28;51033;-54
2023/01/11 17:56:31;;;;;;;;;48.25;36.00;;;;;;;;5039426;28;51101;-52
2023/01/11 17:59:21;;;;;;;;;54.50;40.25;;;;;;;;5038768;28;51093;-52
2023/01/11 18:02:12;;;;;;;;;53.75;39.00;;;;;;;;5038974;28;51251;-55
2023/01/11 18:04:58;;;;;;;;;51.75;39.00;;;;;;;;5041380;28;51759;-54
2023/01/11 18:07:45;;;;;;;;;53.50;36.00;;;;;;;;5041344;28;51181;-54
2023/01/11 18:10:32;;;;;;;;;50.25;36.25;;;;;;;;5042990;28;51188;-49
2023/01/11 18:13:32;;;;;;;;;50.75;37.25;;;;;;;;5044466;28;51167;-55
2023/01/11 18:16:18;;;;;;;;;47.25;37.75;;;;;;;;5042749;28;50999;-52
2023/01/11 18:19:20;;;;;;;;;48.00;36.50;;;;;;;;5042248;28;51327;-49
2023/01/11 18:22:23;;;;;;;;;46.75;36.75;;;;;;;;5042737;28;51038;-51
2023/01/11 18:25:21;;;;;;;;;52.75;37.25;;;;;;;;5041978;28;51095;-51
2023/01/11 18:28:20;;;;;;;;;38.25;34.00;;;;;;;;5042171;28;51150;-55
2023/01/11 18:31:05;;;;;;;;;50.25;36.25;;;;;;;;5041963;28;51679;-52
2023/01/11 18:33:49;;;;;;;;;45.50;33.75;;;;;;;;5046834;28;51159;-49
2023/01/11 18:36:33;;;;;;;;;50.50;36.75;;;;;;;;5041091;28;51029;-54
2023/01/11 18:39:18;;;;;;;;;49.00;38.25;;;;;;;;5048720;28;51219;-55
2023/01/11 18:42:06;;;;;;;;;52.25;36.00;;;;;;;;5047116;28;51537;-52
2023/01/11 18:44:50;;;;;;;;;49.50;37.00;;;;;;;;5037592;28;51169;-53
2023/01/11 18:47:34;;;;;;;;;53.00;38.75;;;;;;;;5042274;28;51126;-50
2023/01/11 18:50:19;;;;;;;;;48.00;36.25;;;;;;;;5041437;28;50990;-53
2023/01/11 18:53:04;;;;;;;;;42.00;34.75;;;;;;;;5041679;28;51180;-54
2023/01/11 18:55:48;;;;;;;;;52.25;36.50;;;;;;;;5041671;28;51551;-50
2023/01/11 18:58:32;;;;;;;;;55.25;39.25;;;;;;;;5041557;28;51210;-52
2023/01/11 19:01:17;;;;;;;;;54.75;41.25;;;;;;;;5041516;28;51116;-52
2023/01/11 19:04:01;;;;;;;;;54.50;36.75;;;;;;;;5041420;28;51138;-51
2023/01/11 19:06:45;;;;;;;;;49.25;35.50;;;;;;;;5041796;28;51103;-52
2023/01/11 19:09:30;;;;;;;;;50.00;37.50;;;;;;;;5022581;28;51213;-52
2023/01/11 19:12:15;;;;;;;;;49.50;37.50;;;;;;;;5040070;28;51157;-52
2023/01/11 19:14:59;;;;;;;;;53.75;36.25;;;;;;;;5044880;28;51469;-53
2023/01/11 19:17:44;;;;;;;;;53.25;39.25;;;;;;;;5041435;28;51253;-52
2023/01/11 19:20:29;;;;;;;;;49.00;37.75;;;;;;;;5040030;28;51102;-50
2023/01/11 19:23:13;;;;;;;;;46.75;35.75;;;;;;;;5034297;28;51119;-55
2023/01/11 19:25:59;;;;;;;;;51.25;39.75;;;;;;;;5041259;28;51049;-55
2023/01/11 19:28:44;;;;;;;;;51.75;41.00;;;;;;;;5040917;28;51140;-51
2023/01/11 19:31:29;;;;;;;;;53.00;39.00;;;;;;;;5040807;28;51555;-51
2023/01/11 19:34:13;;;;;;;;;48.75;37.25;;;;;;;;5040829;28;51200;-53
2023/01/11 19:36:58;;;;;;;;;52.25;38.75;;;;;;;;5040914;28;51082;-50
2023/01/11 19:39:42;;;;;;;;;50.75;37.00;;;;;;;;5040781;28;51523;-51
2023/01/11 19:42:27;;;;;;;;;54.00;36.50;;;;;;;;5040719;28;51123;-52
2023/01/11 19:45:11;;;;;;;;;51.00;35.75;;;;;;;;5040581;28;51605;-50
2023/01/11 19:47:57;;;;;;;;;50.25;37.75;;;;;;;;5040586;28;51092;-52
2023/01/11 19:50:41;;;;;;;;;51.00;38.50;;;;;;;;5041009;28;51266;-54
2023/01/11 19:53:27;;;;;;;;;56.00;37.50;;;;;;;;5053876;28;51199;-53
2023/01/11 19:56:12;;;;;;;;;56.25;40.00;;;;;;;;5040124;28;51628;-50
2023/01/11 19:58:56;;;;;;;;;52.25;39.25;;;;;;;;5043724;28;51171;-55
2023/01/11 20:01:41;;;;;;;;;47.25;37.50;;;;;;;;5033479;28;51138;-53
2023/01/11 20:04:26;;;;;;;;;46.75;32.25;;;;;;;;5039874;28;51062;-50
2023/01/11 20:07:12;;;;;;;;;52.75;37.50;;;;;;;;5040511;28;51070;-49
2023/01/11 20:09:56;;;;;;;;;44.00;32.75;;;;;;;;5040376;28;51590;-50
2023/01/11 20:12:40;;;;;;;;;49.75;39.50;;;;;;;;5040116;28;51060;-52
2023/01/11 20:15:25;;;;;;;;;53.25;38.00;;;;;;;;5040158;28;51097;-54
2023/01/11 20:18:09;;;;;;;;;46.75;37.75;;;;;;;;5040204;28;51074;-53
2023/01/11 20:20:56;;;;;;;;;50.25;38.50;;;;;;;;5040069;28;51641;-52
2023/01/11 20:23:41;;;;;;;;;51.50;38.75;;;;;;;;5039804;28;51149;-50
2023/01/11 20:26:26;;;;;;;;;50.50;38.75;;;;;;;;5040403;28;51147;-50
2023/01/11 20:29:11;;;;;;;;;56.00;38.75;;;;;;;;5039267;28;51220;-55
2023/01/11 20:31:55;;;;;;;;;45.75;37.75;;;;;;;;5039362;28;51136;-51
2023/01/11 20:34:40;;;;;;;;;51.00;37.75;;;;;;;;5040274;28;51597;-50
2023/01/11 20:37:24;;;;;;;;;54.50;39.50;;;;;;;;5039580;28;51197;-56
2023/01/11 20:40:10;;;;;;;;;51.50;38.25;;;;;;;;5039918;28;51093;-52
2023/01/11 20:42:54;;;;;;;;;51.50;38.50;;;;;;;;5039503;28;51205;-52
2023/01/11 20:45:39;;;;;;;;;55.75;40.50;;;;;;;;5039807;28;51495;-50
2023/01/11 20:48:23;;;;;;;;;49.00;34.25;;;;;;;;5039360;28;51156;-54
2023/01/11 20:51:07;;;;;;;;;50.25;37.25;;;;;;;;5039731;28;51239;-50
2023/01/11 20:53:52;;;;;;;;;47.00;35.25;;;;;;;;5039455;28;51113;-53
2023/01/11 20:56:37;;;;;;;;;51.25;39.25;;;;;;;;5039115;28;51135;-52
2023/01/11 20:59:21;;;;;;;;;50.50;37.50;;;;;;;;5039149;28;51647;-52
2023/01/11 21:02:06;;;;;;;;;49.75;35.50;;;;;;;;5039598;28;51000;-55